Time;durP1;ratioP1;P1;durP2;ratioP2;P2;SDS_P1;SDS_P2;PMS_P1;PMS_P2;Temp;Humidity;BMP_temperature;BMP_pressure;BME280_temperature;BME280_humidity;BME280_pressure;Samples;Min_cycle;Max_cycle;Signal;HPM_P1;HPM_P2
2021/06/12 00:02:24;;;;;;;9.70;6.40;;;22.20;78.30;;;;;;5009681;28;20072;-68
2021/06/12 00:04:50;;;;;;;10.77;7.18;;;22.20;78.50;;;;;;5009345;28;20400;-66
2021/06/12 00:07:16;;;;;;;10.82;7.25;;;22.20;78.60;;;;;;5011544;28;20119;-66
2021/06/12 00:09:41;;;;;;;11.00;7.57;;;22.10;78.70;;;;;;5009455;28;20030;-65
2021/06/12 00:12:07;;;;;;;10.20;6.80;;;22.10;78.80;;;;;;4991452;28;20087;-65
2021/06/12 00:14:34;;;;;;;11.55;7.38;;;22.10;78.80;;;;;;5005334;28;20030;-66
2021/06/12 00:17:00;;;;;;;11.57;7.63;;;22.10;78.90;;;;;;5011010;28;20029;-66
2021/06/12 00:19:25;;;;;;;11.18;7.78;;;22.10;79.00;;;;;;5010985;28;20627;-66
2021/06/12 00:21:51;;;;;;;10.65;7.30;;;22.10;79.10;;;;;;5011027;28;20034;-65
2021/06/12 00:24:16;;;;;;;12.18;7.80;;;22.10;78.90;;;;;;5010763;28;20025;-68
2021/06/12 00:26:42;;;;;;;11.27;7.70;;;22.00;78.90;;;;;;5010921;28;20053;-65
2021/06/12 00:29:07;;;;;;;11.55;7.68;;;22.10;79.00;;;;;;5011057;28;20121;-65
2021/06/12 00:31:33;;;;;;;10.60;7.50;;;22.10;79.00;;;;;;5010756;28;20033;-66
2021/06/12 00:33:59;;;;;;;12.07;8.00;;;22.10;79.10;;;;;;5010379;28;20100;-65
2021/06/12 00:36:24;;;;;;;11.52;8.10;;;22.00;79.20;;;;;;5010804;28;20084;-65
2021/06/12 00:38:51;;;;;;;10.63;7.80;;;22.00;79.20;;;;;;5009418;28;20112;-66
2021/06/12 00:41:18;;;;;;;11.15;8.13;;;22.00;79.10;;;;;;5011023;28;20025;-65
2021/06/12 00:43:45;;;;;;;11.18;8.27;;;22.00;79.10;;;;;;5011710;28;20061;-66
2021/06/12 00:46:11;;;;;;;11.43;8.35;;;22.00;79.30;;;;;;5013265;28;20169;-66
2021/06/12 00:48:38;;;;;;;11.85;8.57;;;22.00;79.20;;;;;;5014720;28;20125;-65
2021/06/12 00:51:04;;;;;;;10.85;8.30;;;22.00;79.00;;;;;;5013793;28;20022;-65
2021/06/12 00:53:42;;;;;;;11.38;7.90;;;21.90;79.00;;;;;;5013112;28;20030;-65
2021/06/12 00:56:13;;;;;;;11.55;7.95;;;22.00;79.10;;;;;;5014360;28;20025;-66
2021/06/12 00:58:43;;;;;;;13.68;9.27;;;22.00;79.30;;;;;;5013561;28;20374;-70
2021/06/12 01:01:10;;;;;;;13.50;9.52;;;22.00;79.30;;;;;;5014045;28;20032;-65
2021/06/12 01:03:39;;;;;;;13.45;9.05;;;22.00;79.40;;;;;;5012367;28;20319;-65
2021/06/12 01:06:06;;;;;;;11.05;7.97;;;22.00;79.20;;;;;;5014731;28;20060;-65
2021/06/12 01:08:32;;;;;;;14.65;9.43;;;22.00;79.20;;;;;;5014118;28;20545;-65
2021/06/12 01:10:57;;;;;;;11.75;8.45;;;21.90;79.30;;;;;;5014068;28;20157;-65
2021/06/12 01:13:30;;;;;;;12.80;9.32;;;21.90;79.30;;;;;;5013931;28;20109;-66
2021/06/12 01:16:14;;;;;;;11.93;8.65;;;21.90;79.50;;;;;;5014277;28;20024;-65
2021/06/12 01:18:44;;;;;;;14.32;9.65;;;21.90;79.20;;;;;;5013703;28;20728;-65
2021/06/12 01:21:44;;;;;;;13.50;9.15;;;21.90;79.50;;;;;;5014517;28;20076;-64
2021/06/12 01:24:20;;;;;;;16.45;9.57;;;21.90;79.50;;;;;;4988535;28;20034;-65
2021/06/12 01:27:04;;;;;;;12.68;9.13;;;21.90;79.50;;;;;;5013987;28;20029;-65
2021/06/12 01:30:03;;;;;;;12.30;8.18;;;21.90;79.50;;;;;;5014075;28;20056;-65
2021/06/12 01:32:33;;;;;;;13.40;9.38;;;21.90;79.20;;;;;;5013707;28;20376;-65
2021/06/12 01:35:05;;;;;;;13.50;10.00;;;21.90;79.50;;;;;;5013725;28;20026;-66
2021/06/12 01:37:35;;;;;;;14.77;10.00;;;21.90;79.30;;;;;;5012848;28;20060;-65
2021/06/12 01:40:03;;;;;;;13.55;9.50;;;21.90;79.30;;;;;;5013041;28;20034;-65
2021/06/12 01:42:30;;;;;;;14.88;9.90;;;21.90;79.50;;;;;;5011883;28;20034;-65
2021/06/12 01:44:56;;;;;;;11.52;8.60;;;21.90;79.50;;;;;;5012520;28;20030;-66
2021/06/12 01:47:23;;;;;;;12.65;8.73;;;21.90;79.20;;;;;;5013315;28;20079;-65
2021/06/12 01:49:50;;;;;;;16.17;10.10;;;21.90;79.50;;;;;;5012844;28;20488;-65
2021/06/12 01:52:16;;;;;;;14.80;10.55;;;21.90;79.50;;;;;;5013870;28;20029;-64
2021/06/12 01:54:43;;;;;;;14.85;10.07;;;21.80;79.30;;;;;;5011206;28;20399;-64
2021/06/12 01:57:09;;;;;;;14.40;9.45;;;21.90;79.20;;;;;;5011977;28;20030;-64
2021/06/12 01:59:36;;;;;;;13.65;9.80;;;21.90;79.30;;;;;;5012490;28;20022;-65
2021/06/12 02:02:03;;;;;;;13.85;9.98;;;21.90;79.70;;;;;;5012176;28;20365;-66
2021/06/12 02:04:29;;;;;;;12.25;8.82;;;21.80;79.80;;;;;;5021875;28;20080;-65
2021/06/12 02:07:01;;;;;;;14.95;10.65;;;21.80;79.70;;;;;;5012177;28;20172;-67
2021/06/12 02:09:28;;;;;;;13.25;9.57;;;21.80;79.90;;;;;;5013130;28;20029;-66
2021/06/12 02:11:54;;;;;;;14.35;10.18;;;21.80;80.00;;;;;;5012723;28;20018;-66
2021/06/12 02:14:20;;;;;;;14.05;10.20;;;21.80;79.90;;;;;;5012696;28;20040;-66
2021/06/12 02:16:46;;;;;;;13.65;10.07;;;21.80;79.90;;;;;;5011923;28;20021;-66
2021/06/12 02:19:13;;;;;;;13.20;9.77;;;21.80;80.00;;;;;;5012902;28;20108;-65
2021/06/12 02:21:40;;;;;;;14.20;10.80;;;21.80;80.00;;;;;;5011731;28;20037;-66
2021/06/12 02:24:07;;;;;;;13.73;9.57;;;21.80;79.60;;;;;;5004831;28;20030;-64
2021/06/12 02:26:38;;;;;;;13.50;9.63;;;21.70;79.40;;;;;;5000901;28;20492;-66
2021/06/12 02:29:05;;;;;;;14.85;10.20;;;21.70;79.80;;;;;;5023368;28;20447;-66
2021/06/12 02:31:35;;;;;;;14.80;10.45;;;21.70;79.90;;;;;;5011603;28;20399;-66
2021/06/12 02:34:01;;;;;;;16.88;10.20;;;21.70;80.60;;;;;;5011595;28;20403;-65
2021/06/12 02:36:26;;;;;;;14.80;10.13;;;21.70;79.90;;;;;;5013159;28;20052;-66
2021/06/12 02:38:52;;;;;;;13.07;9.13;;;21.70;79.60;;;;;;5011737;28;20073;-66
2021/06/12 02:41:18;;;;;;;14.38;10.35;;;21.70;79.40;;;;;;5010263;28;20088;-66
2021/06/12 02:43:44;;;;;;;15.50;10.57;;;21.70;80.00;;;;;;5011519;28;20040;-65
2021/06/12 02:46:14;;;;;;;14.65;10.48;;;21.70;80.20;;;;;;5012162;28;20050;-65
2021/06/12 02:48:42;;;;;;;14.63;10.05;;;21.70;80.20;;;;;;5012289;28;20514;-66
2021/06/12 02:51:09;;;;;;;16.55;10.88;;;21.70;80.20;;;;;;5012481;28;20026;-66
2021/06/12 02:53:39;;;;;;;16.83;11.60;;;21.70;80.30;;;;;;5012431;28;20056;-65
2021/06/12 02:56:07;;;;;;;16.75;12.07;;;21.70;80.70;;;;;;5011541;28;20037;-66
2021/06/12 02:58:36;;;;;;;17.45;12.80;;;21.50;81.30;;;;;;5011367;28;20025;-65
2021/06/12 03:01:02;;;;;;;20.35;13.27;;;21.20;83.00;;;;;;5012232;28;20524;-66
2021/06/12 03:03:28;;;;;;;19.92;14.70;;;21.20;82.80;;;;;;5011613;28;20699;-65
2021/06/12 03:05:59;;;;;;;18.27;13.27;;;21.30;82.60;;;;;;5011758;28;20030;-66
2021/06/12 03:08:29;;;;;;;19.85;14.75;;;21.40;82.50;;;;;;5012279;28;20120;-65
2021/06/12 03:10:56;;;;;;;20.83;15.50;;;21.40;81.90;;;;;;5011590;28;20108;-65
2021/06/12 03:13:26;;;;;;;20.48;14.23;;;21.50;81.50;;;;;;5012089;28;20318;-66
2021/06/12 03:15:55;;;;;;;22.90;14.40;;;21.50;81.40;;;;;;5010795;28;20480;-66
2021/06/12 03:18:23;;;;;;;19.75;14.40;;;21.40;81.80;;;;;;5010365;28;20380;-65
2021/06/12 03:20:50;;;;;;;19.77;14.13;;;21.40;81.30;;;;;;5010798;28;20037;-66
2021/06/12 03:23:17;;;;;;;22.70;14.77;;;21.40;81.30;;;;;;5010149;28;20589;-65
2021/06/12 03:25:44;;;;;;;21.38;13.93;;;21.30;81.80;;;;;;5011475;28;20117;-66
2021/06/12 03:28:09;;;;;;;21.48;15.05;;;21.10;82.50;;;;;;5012090;28;20116;-65
2021/06/12 03:30:35;;;;;;;22.65;14.93;;;21.10;83.00;;;;;;5010522;28;20062;-65
2021/06/12 03:33:04;;;;;;;21.80;14.30;;;21.10;82.80;;;;;;5010216;28;20021;-65
2021/06/12 03:35:31;;;;;;;22.33;13.25;;;21.20;82.50;;;;;;5009576;28;20525;-65
2021/06/12 03:37:57;;;;;;;21.38;14.60;;;21.20;82.00;;;;;;5010459;28;20060;-65
2021/06/12 03:40:23;;;;;;;22.88;13.75;;;21.20;81.90;;;;;;5011211;28;20036;-65
2021/06/12 03:42:51;;;;;;;21.58;13.25;;;21.20;82.10;;;;;;5011032;28;20037;-65
2021/06/12 03:45:17;;;;;;;21.50;13.32;;;21.20;81.80;;;;;;5010410;28;20049;-66
2021/06/12 03:47:44;;;;;;;17.63;12.40;;;21.10;81.90;;;;;;5011201;28;20068;-66
2021/06/12 03:50:11;;;;;;;16.98;11.75;;;21.20;81.60;;;;;;5010971;28;20034;-65
2021/06/12 03:52:37;;;;;;;19.65;12.70;;;21.10;81.60;;;;;;4999817;28;20125;-65
2021/06/12 03:55:05;;;;;;;18.42;12.60;;;21.10;81.50;;;;;;5011139;28;20026;-65
2021/06/12 03:57:30;;;;;;;19.20;12.25;;;21.10;81.60;;;;;;5011126;28;20030;-65
2021/06/12 03:59:56;;;;;;;16.80;11.35;;;21.10;81.50;;;;;;5010182;28;20032;-65
2021/06/12 04:02:24;;;;;;;19.30;12.30;;;21.10;81.40;;;;;;5010482;28;20075;-66
2021/06/12 04:04:49;;;;;;;17.13;11.88;;;21.10;81.40;;;;;;5008835;28;20034;-65
2021/06/12 04:07:18;;;;;;;18.52;11.93;;;21.00;81.70;;;;;;5011269;28;20393;-65
2021/06/12 04:09:44;;;;;;;17.08;11.52;;;21.00;81.60;;;;;;5009582;28;20044;-65
2021/06/12 04:12:10;;;;;;;18.95;11.52;;;21.00;81.60;;;;;;5011118;28;20022;-66
2021/06/12 04:14:36;;;;;;;16.13;11.20;;;21.00;81.50;;;;;;5011493;28;20127;-66
2021/06/12 04:17:03;;;;;;;18.52;11.77;;;21.00;81.50;;;;;;5008847;28;20500;-66
2021/06/12 04:19:29;;;;;;;17.42;11.73;;;20.90;81.70;;;;;;5011029;28;20045;-66
2021/06/12 04:21:54;;;;;;;17.80;11.18;;;21.00;81.60;;;;;;5011202;28;20030;-64
2021/06/12 04:24:20;;;;;;;16.00;11.43;;;21.00;81.60;;;;;;5006162;28;20494;-66
2021/06/12 04:26:45;;;;;;;18.80;11.98;;;21.00;81.30;;;;;;5005242;28;20113;-65
2021/06/12 04:29:11;;;;;;;17.13;11.57;;;20.90;81.40;;;;;;5010839;28;20053;-66
2021/06/12 04:31:36;;;;;;;16.23;11.48;;;20.90;81.40;;;;;;5010457;28;20407;-65
2021/06/12 04:34:02;;;;;;;18.10;11.50;;;20.90;81.70;;;;;;5009281;28;20092;-66
2021/06/12 04:36:27;;;;;;;19.40;12.15;;;20.90;81.70;;;;;;5008661;28;20069;-65
2021/06/12 04:38:53;;;;;;;16.90;11.25;;;20.80;81.70;;;;;;5010354;28;20030;-65
2021/06/12 04:41:18;;;;;;;16.70;11.65;;;20.80;81.80;;;;;;5010881;28;20037;-64
2021/06/12 04:43:47;;;;;;;18.00;11.73;;;20.80;81.80;;;;;;5008460;28;20045;-66
2021/06/12 04:46:12;;;;;;;18.75;11.68;;;20.80;81.80;;;;;;5008939;28;20391;-65
2021/06/12 04:48:38;;;;;;;16.35;11.43;;;20.80;81.70;;;;;;5009502;28;20036;-65
2021/06/12 04:51:04;;;;;;;17.95;11.23;;;20.80;81.70;;;;;;5010907;28;20025;-65
2021/06/12 04:53:30;;;;;;;17.33;11.30;;;20.80;82.10;;;;;;5009897;28;20096;-65
2021/06/12 04:55:57;;;;;;;20.98;11.45;;;20.80;82.20;;;;;;5010780;28;20026;-65
2021/06/12 04:58:23;;;;;;;19.15;11.13;;;20.80;82.10;;;;;;5011025;28;20084;-66
2021/06/12 05:00:50;;;;;;;18.98;12.18;;;20.80;82.20;;;;;;5009849;28;20480;-65
2021/06/12 05:03:16;;;;;;;15.90;10.90;;;20.90;82.50;;;;;;5009480;28;20024;-65
2021/06/12 05:05:42;;;;;;;15.38;10.77;;;20.90;82.00;;;;;;5010072;28;20036;-66
2021/06/12 05:08:07;;;;;;;16.27;11.65;;;21.00;82.00;;;;;;5009218;28;20022;-65
2021/06/12 05:10:33;;;;;;;18.35;11.23;;;21.00;81.80;;;;;;5010619;28;20041;-65
2021/06/12 05:12:58;;;;;;;19.65;12.07;;;21.00;81.70;;;;;;5008682;28;20022;-65
2021/06/12 05:15:28;;;;;;;19.05;12.10;;;21.00;81.60;;;;;;5009878;28;20030;-65
2021/06/12 05:17:56;;;;;;;17.45;11.50;;;21.00;81.70;;;;;;5010372;28;20026;-65
2021/06/12 05:20:21;;;;;;;16.73;12.18;;;21.00;82.00;;;;;;5009544;28;20555;-65
2021/06/12 05:22:49;;;;;;;17.20;11.80;;;20.90;82.60;;;;;;5009583;28;20116;-65
2021/06/12 05:25:15;;;;;;;16.52;11.30;;;20.90;82.60;;;;;;5009156;28;20037;-65
2021/06/12 05:27:40;;;;;;;20.08;11.85;;;20.90;82.80;;;;;;4986351;28;20042;-66
2021/06/12 05:30:07;;;;;;;17.15;11.32;;;20.90;82.60;;;;;;4996415;28;20407;-66
2021/06/12 05:32:32;;;;;;;18.30;11.38;;;21.00;82.60;;;;;;5006377;28;20030;-65
2021/06/12 05:35:00;;;;;;;18.30;12.45;;;20.90;82.50;;;;;;5007599;28;20870;-64
2021/06/12 05:37:25;;;;;;;15.25;10.70;;;20.90;82.50;;;;;;5008006;28;20518;-65
2021/06/12 05:39:51;;;;;;;18.50;11.65;;;20.90;82.30;;;;;;5008952;28;20089;-65
2021/06/12 05:42:16;;;;;;;16.63;11.85;;;21.00;82.30;;;;;;5006053;28;20036;-66
2021/06/12 05:44:42;;;;;;;17.42;11.45;;;21.00;82.20;;;;;;5007115;28;20168;-65
2021/06/12 05:47:07;;;;;;;17.50;10.93;;;21.00;82.10;;;;;;5005959;28;20037;-66
2021/06/12 05:49:33;;;;;;;15.73;10.23;;;21.00;81.90;;;;;;5007655;28;20030;-65
2021/06/12 05:51:59;;;;;;;16.08;10.50;;;21.00;81.80;;;;;;5008365;28;20111;-66
2021/06/12 05:54:24;;;;;;;18.38;11.18;;;21.00;82.10;;;;;;5007215;28;20435;-65
2021/06/12 05:56:50;;;;;;;15.18;10.73;;;21.00;82.40;;;;;;5005954;28;20506;-65
2021/06/12 05:59:15;;;;;;;16.95;11.13;;;21.00;81.70;;;;;;5005774;28;20515;-65
2021/06/12 06:01:41;;;;;;;15.95;11.45;;;21.00;81.90;;;;;;5018336;28;20399;-66
2021/06/12 06:04:06;;;;;;;17.38;11.48;;;20.90;81.90;;;;;;5024996;28;20044;-65
2021/06/12 06:06:32;;;;;;;15.82;10.18;;;20.90;82.40;;;;;;5010995;28;20033;-66
2021/06/12 06:08:57;;;;;;;16.80;11.25;;;20.90;82.70;;;;;;5005336;28;20729;-64
2021/06/12 06:11:23;;;;;;;17.80;11.27;;;20.90;83.10;;;;;;5007178;28;20022;-66
2021/06/12 06:13:48;;;;;;;16.67;11.25;;;20.80;83.40;;;;;;5000803;28;20026;-64
2021/06/12 06:16:14;;;;;;;18.23;11.07;;;20.80;83.20;;;;;;5005526;28;20018;-65
2021/06/12 06:18:40;;;;;;;16.90;10.68;;;20.70;84.00;;;;;;5004948;28;20502;-64
2021/06/12 06:21:07;;;;;;;17.25;11.32;;;20.80;83.70;;;;;;5004439;28;20032;-65
2021/06/12 06:23:33;;;;;;;16.67;11.45;;;20.80;83.30;;;;;;5010247;28;20038;-65
2021/06/12 06:25:59;;;;;;;16.58;11.48;;;20.80;83.50;;;;;;5024607;28;20822;-65
2021/06/12 06:28:26;;;;;;;16.65;11.32;;;20.80;83.50;;;;;;5023545;28;20486;-65
2021/06/12 06:30:51;;;;;;;15.93;10.75;;;20.80;83.50;;;;;;5024720;28;20442;-64
2021/06/12 06:33:17;;;;;;;17.20;10.77;;;20.80;83.90;;;;;;5019244;28;20112;-65
2021/06/12 06:35:42;;;;;;;17.00;11.32;;;20.70;84.10;;;;;;5002823;28;20111;-65
2021/06/12 06:38:08;;;;;;;17.95;11.13;;;20.70;84.20;;;;;;5008271;28;20058;-65
2021/06/12 06:40:34;;;;;;;16.27;10.65;;;20.70;84.20;;;;;;5002769;28;20049;-65
2021/06/12 06:43:00;;;;;;;16.02;10.80;;;20.70;84.50;;;;;;5004635;28;20041;-65
2021/06/12 06:45:25;;;;;;;18.10;9.95;;;20.70;84.60;;;;;;5005073;28;20029;-63
2021/06/12 06:47:51;;;;;;;16.60;10.63;;;20.70;84.20;;;;;;5005479;28;20030;-65
2021/06/12 06:50:17;;;;;;;17.38;11.13;;;20.80;84.20;;;;;;5004385;28;20380;-64
2021/06/12 06:52:44;;;;;;;14.50;9.63;;;20.80;84.00;;;;;;5006299;28;20076;-65
2021/06/12 06:55:10;;;;;;;17.58;9.18;;;20.90;84.00;;;;;;5006336;28;20033;-65
2021/06/12 06:57:36;;;;;;;17.35;10.20;;;20.90;83.50;;;;;;5006401;28;20036;-65
